sensor_id;sensor_type;location;lat;lon;timestamp;temperature;humidity
20446;DHT22;10382;49.140;9.234;2023-07-08T00:02:10;24.30;58.70
20446;DHT22;10382;49.140;9.234;2023-07-08T00:04:38;24.20;58.90
20446;DHT22;10382;49.140;9.234;2023-07-08T00:07:11;24.20;59.50
20446;DHT22;10382;49.140;9.234;2023-07-08T00:09:40;24.30;59.40
20446;DHT22;10382;49.140;9.234;2023-07-08T00:12:10;24.20;59.70
20446;DHT22;10382;49.140;9.234;2023-07-08T00:14:37;24.10;60.00
20446;DHT22;10382;49.140;9.234;2023-07-08T00:17:10;24.10;60.70
20446;DHT22;10382;49.140;9.234;2023-07-08T00:19:37;24.00;61.20
20446;DHT22;10382;49.140;9.234;2023-07-08T00:22:11;24.00;62.00
20446;DHT22;10382;49.140;9.234;2023-07-08T00:24:39;24.10;61.20
20446;DHT22;10382;49.140;9.234;2023-07-08T00:27:09;24.00;61.00
20446;DHT22;10382;49.140;9.234;2023-07-08T00:29:36;24.00;61.50
20446;DHT22;10382;49.140;9.234;2023-07-08T00:32:09;23.90;62.10
20446;DHT22;10382;49.140;9.234;2023-07-08T00:34:36;23.90;62.10
20446;DHT22;10382;49.140;9.234;2023-07-08T00:37:03;23.90;62.30
20446;DHT22;10382;49.140;9.234;2023-07-08T00:39:32;23.80;63.00
20446;DHT22;10382;49.140;9.234;2023-07-08T00:41:59;23.80;63.60
20446;DHT22;10382;49.140;9.234;2023-07-08T00:44:26;23.70;63.60
20446;DHT22;10382;49.140;9.234;2023-07-08T00:47:02;23.80;63.90
20446;DHT22;10382;49.140;9.234;2023-07-08T00:49:36;23.70;64.60
20446;DHT22;10382;49.140;9.234;2023-07-08T00:52:21;23.70;64.90
20446;DHT22;10382;49.140;9.234;2023-07-08T00:54:54;23.60;65.30
20446;DHT22;10382;49.140;9.234;2023-07-08T00:57:24;23.50;65.50
20446;DHT22;10382;49.140;9.234;2023-07-08T00:59:57;23.50;66.20
20446;DHT22;10382;49.140;9.234;2023-07-08T01:02:26;23.50;66.70
20446;DHT22;10382;49.140;9.234;2023-07-08T01:04:58;23.50;67.00
20446;DHT22;10382;49.140;9.234;2023-07-08T01:07:28;23.40;67.50
20446;DHT22;10382;49.140;9.234;2023-07-08T01:09:58;23.20;68.10
20446;DHT22;10382;49.140;9.234;2023-07-08T01:12:30;23.20;68.50
20446;DHT22;10382;49.140;9.234;2023-07-08T01:14:59;23.10;69.30
20446;DHT22;10382;49.140;9.234;2023-07-08T01:17:27;23.10;70.10
20446;DHT22;10382;49.140;9.234;2023-07-08T01:19:58;23.00;71.10
20446;DHT22;10382;49.140;9.234;2023-07-08T01:22:27;22.90;70.80
20446;DHT22;10382;49.140;9.234;2023-07-08T01:24:58;22.80;71.70
20446;DHT22;10382;49.140;9.234;2023-07-08T01:27:29;22.70;72.80
20446;DHT22;10382;49.140;9.234;2023-07-08T01:29:58;22.70;73.00
20446;DHT22;10382;49.140;9.234;2023-07-08T01:32:25;22.50;72.90
20446;DHT22;10382;49.140;9.234;2023-07-08T01:34:57;22.50;73.60
20446;DHT22;10382;49.140;9.234;2023-07-08T01:37:33;22.40;74.50
20446;DHT22;10382;49.140;9.234;2023-07-08T01:40:27;22.40;75.80
20446;DHT22;10382;49.140;9.234;2023-07-08T01:42:55;22.30;75.80
20446;DHT22;10382;49.140;9.234;2023-07-08T01:45:25;22.20;76.50
20446;DHT22;10382;49.140;9.234;2023-07-08T01:47:55;22.10;77.90
20446;DHT22;10382;49.140;9.234;2023-07-08T01:50:23;22.20;79.10
20446;DHT22;10382;49.140;9.234;2023-07-08T01:52:53;22.20;80.20
20446;DHT22;10382;49.140;9.234;2023-07-08T01:55:24;22.20;81.20
20446;DHT22;10382;49.140;9.234;2023-07-08T01:57:51;22.30;82.30
20446;DHT22;10382;49.140;9.234;2023-07-08T02:00:19;22.30;82.90
20446;DHT22;10382;49.140;9.234;2023-07-08T02:02:46;22.40;82.80
20446;DHT22;10382;49.140;9.234;2023-07-08T02:05:13;22.40;83.30
20446;DHT22;10382;49.140;9.234;2023-07-08T02:07:40;22.40;83.60
20446;DHT22;10382;49.140;9.234;2023-07-08T02:10:09;22.40;84.20
20446;DHT22;10382;49.140;9.234;2023-07-08T02:12:36;22.40;84.50
20446;DHT22;10382;49.140;9.234;2023-07-08T02:15:05;22.30;84.90
20446;DHT22;10382;49.140;9.234;2023-07-08T02:17:32;22.20;85.70
20446;DHT22;10382;49.140;9.234;2023-07-08T02:19:59;22.20;87.10
20446;DHT22;10382;49.140;9.234;2023-07-08T02:22:25;22.10;87.70
20446;DHT22;10382;49.140;9.234;2023-07-08T02:24:52;22.10;88.00
20446;DHT22;10382;49.140;9.234;2023-07-08T02:27:20;21.80;89.80
20446;DHT22;10382;49.140;9.234;2023-07-08T02:29:47;21.80;89.60
20446;DHT22;10382;49.140;9.234;2023-07-08T02:32:14;21.50;90.20
20446;DHT22;10382;49.140;9.234;2023-07-08T02:34:41;21.40;90.80
20446;DHT22;10382;49.140;9.234;2023-07-08T02:37:08;21.40;91.20
20446;DHT22;10382;49.140;9.234;2023-07-08T02:39:35;21.40;92.00
20446;DHT22;10382;49.140;9.234;2023-07-08T02:42:02;21.40;92.10
20446;DHT22;10382;49.140;9.234;2023-07-08T02:44:30;21.40;92.60
20446;DHT22;10382;49.140;9.234;2023-07-08T02:46:57;21.50;93.10
20446;DHT22;10382;49.140;9.234;2023-07-08T02:49:24;21.50;93.30
20446;DHT22;10382;49.140;9.234;2023-07-08T02:51:50;21.50;94.10
20446;DHT22;10382;49.140;9.234;2023-07-08T02:54:17;21.50;94.60
20446;DHT22;10382;49.140;9.234;2023-07-08T02:56:44;21.40;95.50
20446;DHT22;10382;49.140;9.234;2023-07-08T02:59:11;21.50;95.80
20446;DHT22;10382;49.140;9.234;2023-07-08T03:01:39;21.50;95.90
20446;DHT22;10382;49.140;9.234;2023-07-08T03:04:08;21.50;95.40
20446;DHT22;10382;49.140;9.234;2023-07-08T03:06:38;21.50;95.40
20446;DHT22;10382;49.140;9.234;2023-07-08T03:09:05;21.50;95.20
20446;DHT22;10382;49.140;9.234;2023-07-08T03:11:32;21.50;95.20
20446;DHT22;10382;49.140;9.234;2023-07-08T03:13:59;21.40;95.60
20446;DHT22;10382;49.140;9.234;2023-07-08T03:16:26;21.40;96.20
20446;DHT22;10382;49.140;9.234;2023-07-08T03:18:54;21.30;96.40
20446;DHT22;10382;49.140;9.234;2023-07-08T03:21:21;21.20;95.70
20446;DHT22;10382;49.140;9.234;2023-07-08T03:23:48;21.20;96.40
20446;DHT22;10382;49.140;9.234;2023-07-08T03:26:18;21.20;96.90
20446;DHT22;10382;49.140;9.234;2023-07-08T03:28:45;21.20;97.70
20446;DHT22;10382;49.140;9.234;2023-07-08T03:31:12;21.10;98.80
20446;DHT22;10382;49.140;9.234;2023-07-08T03:33:39;21.00;99.50
20446;DHT22;10382;49.140;9.234;2023-07-08T03:36:11;20.90;99.90
20446;DHT22;10382;49.140;9.234;2023-07-08T03:38:48;20.80;99.90
20446;DHT22;10382;49.140;9.234;2023-07-08T03:41:15;20.80;99.90
20446;DHT22;10382;49.140;9.234;2023-07-08T03:43:42;20.70;99.90
20446;DHT22;10382;49.140;9.234;2023-07-08T03:46:10;20.70;99.90
20446;DHT22;10382;49.140;9.234;2023-07-08T03:48:37;20.70;99.90
20446;DHT22;10382;49.140;9.234;2023-07-08T03:51:06;20.80;99.90
20446;DHT22;10382;49.140;9.234;2023-07-08T03:53:35;20.80;99.90
20446;DHT22;10382;49.140;9.234;2023-07-08T03:56:02;20.90;99.90
20446;DHT22;10382;49.140;9.234;2023-07-08T03:58:29;20.80;99.90
20446;DHT22;10382;49.140;9.234;2023-07-08T04:00:55;20.80;99.90
20446;DHT22;10382;49.140;9.234;2023-07-08T04:03:22;20.70;99.90
20446;DHT22;10382;49.140;9.234;2023-07-08T04:05:49;20.60;99.90
20446;DHT22;10382;49.140;9.234;2023-07-08T04:08:16;20.60;99.90
20446;DHT22;10382;49.140;9.234;2023-07-08T04:10:44;20.60;99.90
20446;DHT22;10382;49.140;9.234;2023-07-08T04:13:11;20.50;99.90
20446;DHT22;10382;49.140;9.234;2023-07-08T04:15:38;20.50;99.90
20446;DHT22;10382;49.140;9.234;2023-07-08T04:18:05;20.50;99.90
20446;DHT22;10382;49.140;9.234;2023-07-08T04:20:32;20.60;99.90
20446;DHT22;10382;49.140;9.234;2023-07-08T04:22:59;20.60;99.90
20446;DHT22;10382;49.140;9.234;2023-07-08T04:25:26;20.70;99.90
20446;DHT22;10382;49.140;9.234;2023-07-08T04:27:54;20.80;99.90
20446;DHT22;10382;49.140;9.234;2023-07-08T04:30:23;21.00;99.90
20446;DHT22;10382;49.140;9.234;2023-07-08T04:32:51;21.00;99.90
20446;DHT22;10382;49.140;9.234;2023-07-08T04:35:18;21.10;99.90
20446;DHT22;10382;49.140;9.234;2023-07-08T04:37:45;21.10;99.90
20446;DHT22;10382;49.140;9.234;2023-07-08T04:40:17;21.20;99.90
20446;DHT22;10382;49.140;9.234;2023-07-08T04:42:45;21.30;99.90
20446;DHT22;10382;49.140;9.234;2023-07-08T04:45:16;21.30;99.90
20446;DHT22;10382;49.140;9.234;2023-07-08T04:47:44;21.40;99.90
20446;DHT22;10382;49.140;9.234;2023-07-08T04:50:12;21.40;99.90
20446;DHT22;10382;49.140;9.234;2023-07-08T04:52:39;21.50;99.90
20446;DHT22;10382;49.140;9.234;2023-07-08T04:55:07;21.60;99.90
20446;DHT22;10382;49.140;9.234;2023-07-08T04:57:35;21.70;99.90
20446;DHT22;10382;49.140;9.234;2023-07-08T05:00:03;21.70;99.90
20446;DHT22;10382;49.140;9.234;2023-07-08T05:02:34;21.80;99.90
20446;DHT22;10382;49.140;9.234;2023-07-08T05:05:01;21.80;99.90
20446;DHT22;10382;49.140;9.234;2023-07-08T05:07:28;21.90;99.90
20446;DHT22;10382;49.140;9.234;2023-07-08T05:09:55;22.00;99.90
20446;DHT22;10382;49.140;9.234;2023-07-08T05:12:22;22.10;99.90
20446;DHT22;10382;49.140;9.234;2023-07-08T05:14:49;22.20;99.90
20446;DHT22;10382;49.140;9.234;2023-07-08T05:17:15;22.40;99.90
20446;DHT22;10382;49.140;9.234;2023-07-08T05:19:44;22.50;99.50
20446;DHT22;10382;49.140;9.234;2023-07-08T05:22:11;22.50;99.20
20446;DHT22;10382;49.140;9.234;2023-07-08T05:24:38;22.60;99.50
20446;DHT22;10382;49.140;9.234;2023-07-08T05:27:05;22.60;99.50
20446;DHT22;10382;49.140;9.234;2023-07-08T05:29:32;22.80;99.30
20446;DHT22;10382;49.140;9.234;2023-07-08T05:31:59;23.00;98.90
20446;DHT22;10382;49.140;9.234;2023-07-08T05:34:26;23.10;98.30
20446;DHT22;10382;49.140;9.234;2023-07-08T05:36:54;23.20;98.30
20446;DHT22;10382;49.140;9.234;2023-07-08T05:39:21;23.30;97.90
20446;DHT22;10382;49.140;9.234;2023-07-08T05:41:48;23.40;97.70
20446;DHT22;10382;49.140;9.234;2023-07-08T05:44:15;23.50;97.40
20446;DHT22;10382;49.140;9.234;2023-07-08T05:46:41;23.70;96.80
20446;DHT22;10382;49.140;9.234;2023-07-08T05:49:08;23.90;96.70
20446;DHT22;10382;49.140;9.234;2023-07-08T05:51:36;24.10;96.20
20446;DHT22;10382;49.140;9.234;2023-07-08T05:54:05;24.20;95.70
20446;DHT22;10382;49.140;9.234;2023-07-08T05:56:31;24.40;95.00
20446;DHT22;10382;49.140;9.234;2023-07-08T05:58:58;24.50;93.70
20446;DHT22;10382;49.140;9.234;2023-07-08T06:01:25;24.60;93.60
20446;DHT22;10382;49.140;9.234;2023-07-08T06:03:52;24.70;93.40
20446;DHT22;10382;49.140;9.234;2023-07-08T06:06:19;24.80;92.90
20446;DHT22;10382;49.140;9.234;2023-07-08T06:08:46;24.90;91.50
20446;DHT22;10382;49.140;9.234;2023-07-08T06:14:39;24.60;95.80
20446;DHT22;10382;49.140;9.234;2023-07-08T06:17:06;24.30;97.80
20446;DHT22;10382;49.140;9.234;2023-07-08T06:19:33;24.10;97.80
20446;DHT22;10382;49.140;9.234;2023-07-08T06:22:00;24.10;98.80
20446;DHT22;10382;49.140;9.234;2023-07-08T06:24:27;23.90;99.00
20446;DHT22;10382;49.140;9.234;2023-07-08T06:26:54;23.80;98.80
20446;DHT22;10382;49.140;9.234;2023-07-08T06:29:21;23.70;98.50
20446;DHT22;10382;49.140;9.234;2023-07-08T06:31:49;23.70;98.60
20446;DHT22;10382;49.140;9.234;2023-07-08T06:34:16;23.60;98.90
20446;DHT22;10382;49.140;9.234;2023-07-08T06:36:42;23.70;98.40
20446;DHT22;10382;49.140;9.234;2023-07-08T06:39:09;23.50;98.70
20446;DHT22;10382;49.140;9.234;2023-07-08T06:41:37;23.60;98.90
20446;DHT22;10382;49.140;9.234;2023-07-08T06:44:04;23.80;99.00
20446;DHT22;10382;49.140;9.234;2023-07-08T06:46:31;23.90;99.70
20446;DHT22;10382;49.140;9.234;2023-07-08T06:49:00;24.10;98.70
20446;DHT22;10382;49.140;9.234;2023-07-08T06:51:27;24.20;98.30
20446;DHT22;10382;49.140;9.234;2023-07-08T06:53:54;24.20;98.50
20446;DHT22;10382;49.140;9.234;2023-07-08T06:56:21;24.10;98.40
20446;DHT22;10382;49.140;9.234;2023-07-08T06:58:48;24.10;98.90
20446;DHT22;10382;49.140;9.234;2023-07-08T07:01:15;24.20;98.70
20446;DHT22;10382;49.140;9.234;2023-07-08T07:03:42;24.30;98.70
20446;DHT22;10382;49.140;9.234;2023-07-08T07:06:10;24.60;97.50
20446;DHT22;10382;49.140;9.234;2023-07-08T07:08:37;24.80;96.60
20446;DHT22;10382;49.140;9.234;2023-07-08T07:11:04;25.10;96.40
20446;DHT22;10382;49.140;9.234;2023-07-08T07:13:31;25.40;95.50
20446;DHT22;10382;49.140;9.234;2023-07-08T07:15:58;25.70;94.50
20446;DHT22;10382;49.140;9.234;2023-07-08T07:18:25;26.10;93.40
20446;DHT22;10382;49.140;9.234;2023-07-08T07:20:53;26.40;93.30
20446;DHT22;10382;49.140;9.234;2023-07-08T07:23:22;26.80;92.00
20446;DHT22;10382;49.140;9.234;2023-07-08T07:25:49;27.10;91.40
20446;DHT22;10382;49.140;9.234;2023-07-08T07:28:16;27.40;90.40
20446;DHT22;10382;49.140;9.234;2023-07-08T07:30:43;27.60;86.50
20446;DHT22;10382;49.140;9.234;2023-07-08T07:33:10;27.60;82.00
20446;DHT22;10382;49.140;9.234;2023-07-08T07:35:42;27.70;82.30
20446;DHT22;10382;49.140;9.234;2023-07-08T07:38:09;27.90;81.80
20446;DHT22;10382;49.140;9.234;2023-07-08T07:40:39;27.90;79.70
20446;DHT22;10382;49.140;9.234;2023-07-08T07:43:06;27.80;77.50
20446;DHT22;10382;49.140;9.234;2023-07-08T07:45:33;27.80;76.70
20446;DHT22;10382;49.140;9.234;2023-07-08T07:48:00;27.80;77.70
20446;DHT22;10382;49.140;9.234;2023-07-08T07:50:27;27.90;77.90
20446;DHT22;10382;49.140;9.234;2023-07-08T07:52:54;28.10;74.90
20446;DHT22;10382;49.140;9.234;2023-07-08T07:55:21;28.40;72.90
20446;DHT22;10382;49.140;9.234;2023-07-08T07:57:50;28.40;74.00
20446;DHT22;10382;49.140;9.234;2023-07-08T08:00:17;28.50;74.30
20446;DHT22;10382;49.140;9.234;2023-07-08T08:02:44;28.60;73.10
20446;DHT22;10382;49.140;9.234;2023-07-08T08:05:11;28.70;72.30
20446;DHT22;10382;49.140;9.234;2023-07-08T08:07:38;28.70;73.00
20446;DHT22;10382;49.140;9.234;2023-07-08T08:10:07;28.80;71.50
20446;DHT22;10382;49.140;9.234;2023-07-08T08:12:34;28.60;71.90
20446;DHT22;10382;49.140;9.234;2023-07-08T08:15:02;28.70;71.80
20446;DHT22;10382;49.140;9.234;2023-07-08T08:17:30;28.60;73.00
20446;DHT22;10382;49.140;9.234;2023-07-08T08:19:57;28.70;73.90
20446;DHT22;10382;49.140;9.234;2023-07-08T08:22:24;28.80;75.10
20446;DHT22;10382;49.140;9.234;2023-07-08T08:24:51;28.90;73.10
20446;DHT22;10382;49.140;9.234;2023-07-08T08:27:17;29.00;73.20
20446;DHT22;10382;49.140;9.234;2023-07-08T08:29:44;29.10;73.60
20446;DHT22;10382;49.140;9.234;2023-07-08T08:32:13;29.20;72.20
20446;DHT22;10382;49.140;9.234;2023-07-08T08:34:40;29.40;72.00
20446;DHT22;10382;49.140;9.234;2023-07-08T08:37:08;29.50;72.40
20446;DHT22;10382;49.140;9.234;2023-07-08T08:39:35;29.60;71.30
20446;DHT22;10382;49.140;9.234;2023-07-08T08:42:02;29.70;71.30
20446;DHT22;10382;49.140;9.234;2023-07-08T08:44:32;29.70;72.70
20446;DHT22;10382;49.140;9.234;2023-07-08T08:47:05;29.90;72.10
20446;DHT22;10382;49.140;9.234;2023-07-08T08:49:41;30.00;73.00
20446;DHT22;10382;49.140;9.234;2023-07-08T08:52:10;30.00;72.00
20446;DHT22;10382;49.140;9.234;2023-07-08T08:54:38;30.00;71.60
20446;DHT22;10382;49.140;9.234;2023-07-08T08:57:14;30.10;72.10
20446;DHT22;10382;49.140;9.234;2023-07-08T08:59:45;30.20;71.40
20446;DHT22;10382;49.140;9.234;2023-07-08T09:02:25;30.30;71.90
20446;DHT22;10382;49.140;9.234;2023-07-08T09:04:57;30.40;71.00
20446;DHT22;10382;49.140;9.234;2023-07-08T09:07:26;30.50;70.90
20446;DHT22;10382;49.140;9.234;2023-07-08T09:10:02;30.80;70.00
20446;DHT22;10382;49.140;9.234;2023-07-08T09:12:30;30.90;69.20
20446;DHT22;10382;49.140;9.234;2023-07-08T09:14:58;31.00;67.30
20446;DHT22;10382;49.140;9.234;2023-07-08T09:17:28;31.00;68.60
20446;DHT22;10382;49.140;9.234;2023-07-08T09:20:11;31.00;67.70
20446;DHT22;10382;49.140;9.234;2023-07-08T09:22:43;31.10;66.80
20446;DHT22;10382;49.140;9.234;2023-07-08T09:25:28;31.10;66.80
20446;DHT22;10382;49.140;9.234;2023-07-08T09:27:58;30.90;67.20
20446;DHT22;10382;49.140;9.234;2023-07-08T09:30:25;31.00;67.90
20446;DHT22;10382;49.140;9.234;2023-07-08T09:32:54;31.10;68.40
20446;DHT22;10382;49.140;9.234;2023-07-08T09:35:25;31.20;67.60
20446;DHT22;10382;49.140;9.234;2023-07-08T09:37:52;31.40;67.70
20446;DHT22;10382;49.140;9.234;2023-07-08T09:40:21;31.60;65.70
20446;DHT22;10382;49.140;9.234;2023-07-08T09:42:50;31.50;66.10
20446;DHT22;10382;49.140;9.234;2023-07-08T09:45:20;31.30;65.70
20446;DHT22;10382;49.140;9.234;2023-07-08T09:47:51;31.40;65.60
20446;DHT22;10382;49.140;9.234;2023-07-08T09:50:20;31.60;64.80
20446;DHT22;10382;49.140;9.234;2023-07-08T09:52:50;31.60;64.60
20446;DHT22;10382;49.140;9.234;2023-07-08T09:55:19;31.70;64.30
20446;DHT22;10382;49.140;9.234;2023-07-08T09:57:48;31.80;62.00
20446;DHT22;10382;49.140;9.234;2023-07-08T10:00:17;31.70;62.80
20446;DHT22;10382;49.140;9.234;2023-07-08T10:02:46;31.70;63.70
20446;DHT22;10382;49.140;9.234;2023-07-08T10:05:19;31.90;64.70
20446;DHT22;10382;49.140;9.234;2023-07-08T10:07:48;32.20;64.20
20446;DHT22;10382;49.140;9.234;2023-07-08T10:10:21;32.40;62.90
20446;DHT22;10382;49.140;9.234;2023-07-08T10:12:56;32.70;62.40
20446;DHT22;10382;49.140;9.234;2023-07-08T10:15:29;32.90;62.50
20446;DHT22;10382;49.140;9.234;2023-07-08T10:17:57;33.10;61.90
20446;DHT22;10382;49.140;9.234;2023-07-08T10:20:28;33.20;61.10
20446;DHT22;10382;49.140;9.234;2023-07-08T10:23:05;33.40;59.70
20446;DHT22;10382;49.140;9.234;2023-07-08T10:25:41;33.70;59.30
20446;DHT22;10382;49.140;9.234;2023-07-08T10:28:26;33.70;57.10
20446;DHT22;10382;49.140;9.234;2023-07-08T10:31:06;33.70;57.90
20446;DHT22;10382;49.140;9.234;2023-07-08T10:33:53;33.50;58.70
20446;DHT22;10382;49.140;9.234;2023-07-08T10:36:30;33.60;60.10
20446;DHT22;10382;49.140;9.234;2023-07-08T10:39:15;33.80;58.30
20446;DHT22;10382;49.140;9.234;2023-07-08T10:41:52;33.90;56.70
20446;DHT22;10382;49.140;9.234;2023-07-08T10:44:27;34.10;56.40
20446;DHT22;10382;49.140;9.234;2023-07-08T10:47:05;34.20;56.30
20446;DHT22;10382;49.140;9.234;2023-07-08T10:49:44;34.40;56.20
20446;DHT22;10382;49.140;9.234;2023-07-08T10:52:37;34.50;55.80
20446;DHT22;10382;49.140;9.234;2023-07-08T10:55:26;34.60;55.90
20446;DHT22;10382;49.140;9.234;2023-07-08T10:58:12;34.80;54.70
20446;DHT22;10382;49.140;9.234;2023-07-08T11:00:46;34.80;53.90
20446;DHT22;10382;49.140;9.234;2023-07-08T11:03:35;34.70;54.80
20446;DHT22;10382;49.140;9.234;2023-07-08T11:06:10;34.40;55.20
20446;DHT22;10382;49.140;9.234;2023-07-08T11:08:41;34.40;55.00
20446;DHT22;10382;49.140;9.234;2023-07-08T11:11:18;34.40;54.30
20446;DHT22;10382;49.140;9.234;2023-07-08T11:13:53;34.30;53.00
20446;DHT22;10382;49.140;9.234;2023-07-08T11:16:25;34.20;53.80
20446;DHT22;10382;49.140;9.234;2023-07-08T11:18:55;34.30;53.10
20446;DHT22;10382;49.140;9.234;2023-07-08T11:21:29;34.40;52.50
20446;DHT22;10382;49.140;9.234;2023-07-08T11:24:02;34.50;53.10
20446;DHT22;10382;49.140;9.234;2023-07-08T11:26:36;34.60;54.40
20446;DHT22;10382;49.140;9.234;2023-07-08T11:29:13;34.80;54.10
20446;DHT22;10382;49.140;9.234;2023-07-08T11:31:43;35.20;53.20
20446;DHT22;10382;49.140;9.234;2023-07-08T11:34:11;35.30;52.80
20446;DHT22;10382;49.140;9.234;2023-07-08T11:36:39;35.50;52.80
20446;DHT22;10382;49.140;9.234;2023-07-08T11:39:26;35.60;52.80
20446;DHT22;10382;49.140;9.234;2023-07-08T11:42:04;35.70;51.90
20446;DHT22;10382;49.140;9.234;2023-07-08T11:44:33;35.50;51.60
20446;DHT22;10382;49.140;9.234;2023-07-08T11:47:00;35.50;52.00
20446;DHT22;10382;49.140;9.234;2023-07-08T11:49:28;35.60;52.30
20446;DHT22;10382;49.140;9.234;2023-07-08T11:51:57;35.80;52.20
20446;DHT22;10382;49.140;9.234;2023-07-08T11:54:28;35.70;51.20
20446;DHT22;10382;49.140;9.234;2023-07-08T11:57:00;35.90;50.60
20446;DHT22;10382;49.140;9.234;2023-07-08T11:59:31;36.00;49.60
20446;DHT22;10382;49.140;9.234;2023-07-08T12:02:03;36.00;49.60
20446;DHT22;10382;49.140;9.234;2023-07-08T12:04:32;36.00;49.30
20446;DHT22;10382;49.140;9.234;2023-07-08T12:07:12;36.00;48.50
20446;DHT22;10382;49.140;9.234;2023-07-08T12:09:47;35.90;48.20
20446;DHT22;10382;49.140;9.234;2023-07-08T12:12:21;35.70;48.30
20446;DHT22;10382;49.140;9.234;2023-07-08T12:14:48;35.50;49.20
20446;DHT22;10382;49.140;9.234;2023-07-08T12:17:16;35.30;48.50
20446;DHT22;10382;49.140;9.234;2023-07-08T12:19:43;35.40;49.20
20446;DHT22;10382;49.140;9.234;2023-07-08T12:22:11;35.40;48.50
20446;DHT22;10382;49.140;9.234;2023-07-08T12:24:39;35.20;48.30
20446;DHT22;10382;49.140;9.234;2023-07-08T12:27:09;35.00;49.00
20446;DHT22;10382;49.140;9.234;2023-07-08T12:29:37;35.20;48.80
20446;DHT22;10382;49.140;9.234;2023-07-08T12:32:05;35.00;49.50
20446;DHT22;10382;49.140;9.234;2023-07-08T12:34:32;35.10;49.60
20446;DHT22;10382;49.140;9.234;2023-07-08T12:36:59;35.40;49.30
20446;DHT22;10382;49.140;9.234;2023-07-08T12:39:26;35.70;49.30
20446;DHT22;10382;49.140;9.234;2023-07-08T12:41:53;35.90;48.90
20446;DHT22;10382;49.140;9.234;2023-07-08T12:44:25;36.00;48.80
20446;DHT22;10382;49.140;9.234;2023-07-08T12:46:54;35.90;48.30
20446;DHT22;10382;49.140;9.234;2023-07-08T12:49:21;35.80;48.80
20446;DHT22;10382;49.140;9.234;2023-07-08T12:51:52;35.90;48.30
20446;DHT22;10382;49.140;9.234;2023-07-08T12:54:19;36.20;48.40
20446;DHT22;10382;49.140;9.234;2023-07-08T12:56:47;36.40;47.10
20446;DHT22;10382;49.140;9.234;2023-07-08T12:59:17;36.50;47.20
20446;DHT22;10382;49.140;9.234;2023-07-08T13:01:46;36.50;46.90
20446;DHT22;10382;49.140;9.234;2023-07-08T13:04:15;36.40;47.10
20446;DHT22;10382;49.140;9.234;2023-07-08T13:06:44;36.50;47.20
20446;DHT22;10382;49.140;9.234;2023-07-08T13:09:29;36.60;47.10
20446;DHT22;10382;49.140;9.234;2023-07-08T13:12:02;36.60;47.20
20446;DHT22;10382;49.140;9.234;2023-07-08T13:14:30;36.80;47.20
20446;DHT22;10382;49.140;9.234;2023-07-08T13:16:57;37.00;46.30
20446;DHT22;10382;49.140;9.234;2023-07-08T13:19:26;36.90;46.40
20446;DHT22;10382;49.140;9.234;2023-07-08T13:21:53;36.70;46.70
20446;DHT22;10382;49.140;9.234;2023-07-08T13:24:21;36.70;46.60
20446;DHT22;10382;49.140;9.234;2023-07-08T13:26:49;36.70;46.20
20446;DHT22;10382;49.140;9.234;2023-07-08T13:29:18;36.70;46.80
20446;DHT22;10382;49.140;9.234;2023-07-08T13:31:48;36.80;46.40
20446;DHT22;10382;49.140;9.234;2023-07-08T13:34:18;36.70;46.20
20446;DHT22;10382;49.140;9.234;2023-07-08T13:36:50;36.70;46.50
20446;DHT22;10382;49.140;9.234;2023-07-08T13:39:22;37.00;46.30
20446;DHT22;10382;49.140;9.234;2023-07-08T13:41:51;37.10;46.90
20446;DHT22;10382;49.140;9.234;2023-07-08T13:44:18;37.30;46.60
20446;DHT22;10382;49.140;9.234;2023-07-08T13:46:49;37.40;47.00
20446;DHT22;10382;49.140;9.234;2023-07-08T13:49:22;37.60;46.00
20446;DHT22;10382;49.140;9.234;2023-07-08T13:51:51;37.70;45.10
20446;DHT22;10382;49.140;9.234;2023-07-08T13:54:21;37.70;45.70
20446;DHT22;10382;49.140;9.234;2023-07-08T13:56:49;37.80;44.70
20446;DHT22;10382;49.140;9.234;2023-07-08T13:59:23;37.70;45.50
20446;DHT22;10382;49.140;9.234;2023-07-08T14:01:52;37.70;44.80
20446;DHT22;10382;49.140;9.234;2023-07-08T14:04:30;37.80;45.40
20446;DHT22;10382;49.140;9.234;2023-07-08T14:06:59;37.90;44.50
20446;DHT22;10382;49.140;9.234;2023-07-08T14:09:26;37.80;44.10
20446;DHT22;10382;49.140;9.234;2023-07-08T14:11:53;37.40;44.70
20446;DHT22;10382;49.140;9.234;2023-07-08T14:14:20;37.00;45.70
20446;DHT22;10382;49.140;9.234;2023-07-08T14:16:49;36.90;45.50
20446;DHT22;10382;49.140;9.234;2023-07-08T14:19:19;37.00;45.00
20446;DHT22;10382;49.140;9.234;2023-07-08T14:21:48;37.20;44.50
20446;DHT22;10382;49.140;9.234;2023-07-08T14:24:19;37.30;44.50
20446;DHT22;10382;49.140;9.234;2023-07-08T14:26:46;37.10;44.70
20446;DHT22;10382;49.140;9.234;2023-07-08T14:29:13;37.10;45.00
20446;DHT22;10382;49.140;9.234;2023-07-08T14:31:40;37.00;44.90
20446;DHT22;10382;49.140;9.234;2023-07-08T14:34:12;36.90;45.20
20446;DHT22;10382;49.140;9.234;2023-07-08T14:36:39;37.00;45.10
20446;DHT22;10382;49.140;9.234;2023-07-08T14:39:13;37.00;45.50
20446;DHT22;10382;49.140;9.234;2023-07-08T14:41:43;37.10;45.80
20446;DHT22;10382;49.140;9.234;2023-07-08T14:44:22;37.20;45.50
20446;DHT22;10382;49.140;9.234;2023-07-08T14:46:49;37.30;45.50
20446;DHT22;10382;49.140;9.234;2023-07-08T14:49:18;37.30;45.10
20446;DHT22;10382;49.140;9.234;2023-07-08T14:51:45;37.20;45.30
20446;DHT22;10382;49.140;9.234;2023-07-08T14:54:12;37.10;45.40
20446;DHT22;10382;49.140;9.234;2023-07-08T14:56:42;37.00;44.90
20446;DHT22;10382;49.140;9.234;2023-07-08T14:59:13;36.90;45.00
20446;DHT22;10382;49.140;9.234;2023-07-08T15:01:41;36.80;43.40
20446;DHT22;10382;49.140;9.234;2023-07-08T15:04:10;36.50;43.10
20446;DHT22;10382;49.140;9.234;2023-07-08T15:06:38;36.10;43.50
20446;DHT22;10382;49.140;9.234;2023-07-08T15:09:04;35.90;43.70
20446;DHT22;10382;49.140;9.234;2023-07-08T15:11:32;35.70;43.80
20446;DHT22;10382;49.140;9.234;2023-07-08T15:14:01;35.70;44.20
20446;DHT22;10382;49.140;9.234;2023-07-08T15:16:28;35.60;44.10
20446;DHT22;10382;49.140;9.234;2023-07-08T15:18:55;35.50;43.80
20446;DHT22;10382;49.140;9.234;2023-07-08T15:21:23;35.40;43.60
20446;DHT22;10382;49.140;9.234;2023-07-08T15:23:49;35.20;44.50
20446;DHT22;10382;49.140;9.234;2023-07-08T15:26:16;35.20;44.60
20446;DHT22;10382;49.140;9.234;2023-07-08T15:28:45;35.20;44.70
20446;DHT22;10382;49.140;9.234;2023-07-08T15:31:16;35.30;44.20
20446;DHT22;10382;49.140;9.234;2023-07-08T15:33:44;35.50;44.30
20446;DHT22;10382;49.140;9.234;2023-07-08T15:36:12;35.70;45.00
20446;DHT22;10382;49.140;9.234;2023-07-08T15:38:40;36.00;46.60
20446;DHT22;10382;49.140;9.234;2023-07-08T15:41:11;36.30;46.70
20446;DHT22;10382;49.140;9.234;2023-07-08T15:43:42;36.40;46.10
20446;DHT22;10382;49.140;9.234;2023-07-08T15:46:09;36.30;45.80
20446;DHT22;10382;49.140;9.234;2023-07-08T15:48:38;36.20;45.90